Cumshewa Island, British Columbia

1:31 AM PDT on April 26, 2017 (GMT -0700)
Sandspit | | Change Station

Elev 20 ft 53.25 °N, 131.82 °W | Updated 16 minutes ago

Overcast
Overcast
46 °F
Feels Like 38 °F
N
23
Wind Variable Wind from SE
Gusts 34 mph

Today
High -- | Low -- °F
--% Chance of Precip.
Yesterday
High -- | Low -- °F
Precip. -- in
Pressure 29.37 in
Visibility 9.0 miles
Clouds Mostly Cloudy 1100 ft
Mostly Cloudy 2500 ft
Mostly Cloudy 8000 ft
Overcast 13000 ft
Windchill 38 °F
Dew Point 45 °F
Humidity 93%
Rainfall 0.00 in
Snow Depth Not available.
6:22 AM 9:06 PM
Waning Crescent, 0% visible
SPECI CYZP 260815Z AUTO 14020G30KT 9SM BKN011 BKN025 BKN080 OVC130 08/07 A2936 RMK SLP943
Pressure 29.37 in
Visibility 9.0 miles
Clouds Mostly Cloudy 1100 ft
Mostly Cloudy 2500 ft
Mostly Cloudy 8000 ft
Overcast 13000 ft
Windchill 38 °F
Dew Point 45 °F
Humidity 93%
Rainfall 0.00 in
Snow Depth Not available.
6:22 AM 9:06 PM
Waning Crescent, 0% visible
SPECI CYZP 260815Z AUTO 14020G30KT 9SM BKN011 BKN025 BKN080 OVC130 08/07 A2936 RMK SLP943

Get Severe Weather Alerts

Thanks for signing up!

Be on the lookout for a verification email in your inbox.

You'll start receiving the daily forecast at 8 AM.

×

10-Day Weather Forecast

Almanac

Astronomy

Apr. 26, 2017 Rise Set
Actual Time
Civil Twilight
Nautical Twilight
Astronomical Twilight
Moon
Length of Visible Light
Length of Day
Tomorrow will be .
, % of the Moon is Illuminated

Today's Extremes

Country Highs Country Lows

Community

WunderPhotos

WunderBlog® & News

Nearby

Air Quality

  Air Quality AQ Index Pollutant
Not available.

Snow Depth

Station Depth Elevation

Earthquake Activity

City Distance Mag. Time & Date
Minimum magnitude displayed is 2.5.

Coastal Water Temperatures

Place Temperature

Stations

Nearby Weather Stations

Station Location Temp. Windchill Dew Point Humidity Wind Precip. Elev Updated Type
                   

Watches & Warnings

There are currently no watches in effect.